createdAt,value
2017-12-05T00:04:24.051Z,80.36
2017-12-05T00:09:24.251Z,80.71
2017-12-05T00:14:23.930Z,80.36
2017-12-05T00:19:24.129Z,80.51
2017-12-05T00:24:24.084Z,80.42
2017-12-05T00:29:24.082Z,81.19
2017-12-05T00:34:23.948Z,80.51
2017-12-05T00:39:24.006Z,80.71
2017-12-05T00:44:23.836Z,80.99
2017-12-05T00:49:23.768Z,80.99
2017-12-05T00:54:23.719Z,80.86
2017-12-05T00:59:23.674Z,80.76
2017-12-05T01:04:23.601Z,81.15
2017-12-05T01:09:23.572Z,81.24
2017-12-05T01:14:23.561Z,81.43
2017-12-05T01:19:23.420Z,81.72
2017-12-05T01:24:23.363Z,81.43
2017-12-05T01:29:23.295Z,81.63
2017-12-05T01:34:23.256Z,81.72
2017-12-05T01:39:22.924Z,81.34
2017-12-05T01:44:23.143Z,81.53
2017-12-05T01:49:23.056Z,81.72
2017-12-05T01:54:23.101Z,81.63
2017-12-05T01:59:22.940Z,81.72
2017-12-05T02:04:22.891Z,81.34
2017-12-05T02:09:22.820Z,81.43
2017-12-05T02:14:22.764Z,81.05
2017-12-05T02:19:22.692Z,80.76
2017-12-05T02:24:22.628Z,81.24
2017-12-05T02:29:22.571Z,81.15
2017-12-05T02:34:22.506Z,81.43
2017-12-05T02:39:22.442Z,81.24
2017-12-05T02:44:22.394Z,81.53
2017-12-05T02:49:22.326Z,81.01
2017-12-05T02:54:22.258Z,81.3
2017-12-05T02:59:22.196Z,81.49
2017-12-05T03:04:22.130Z,81.59
2017-12-05T03:09:22.108Z,81.49
2017-12-05T03:14:22.012Z,81.4
2017-12-05T03:19:21.952Z,81.49
2017-12-05T03:24:21.888Z,81.4
2017-12-05T03:29:21.825Z,81.4
2017-12-05T03:34:21.763Z,81.68
2017-12-05T03:39:21.707Z,81.49
2017-12-05T03:44:21.666Z,81.68
2017-12-05T03:49:21.326Z,81.4
2017-12-05T03:54:21.509Z,81.59
2017-12-05T03:59:21.445Z,81.78
2017-12-05T04:04:21.121Z,81.4
2017-12-05T04:09:21.313Z,81.01
2017-12-05T04:14:21.371Z,81.01
2017-12-05T04:19:21.176Z,80.73
2017-12-05T04:24:21.113Z,80.91
2017-12-05T04:29:21.055Z,80.91
2017-12-05T04:34:20.973Z,81.1
2017-12-05T04:39:20.897Z,81.01
2017-12-05T04:44:20.829Z,81.2
2017-12-05T04:49:20.764Z,81.2
2017-12-05T04:54:20.695Z,81.1
2017-12-05T04:59:20.625Z,81.1
2017-12-05T05:04:20.297Z,81.1
2017-12-05T05:09:20.475Z,81.4
2017-12-05T05:14:20.421Z,81.49
2017-12-05T05:19:20.406Z,81.49
2017-12-05T05:24:20.027Z,81.59
2017-12-05T05:29:20.308Z,81.45
2017-12-05T05:34:20.164Z,81.2
2017-12-05T05:39:19.864Z,80.91
2017-12-05T05:44:20.045Z,80.38
2017-12-05T05:49:19.985Z,80.76
2017-12-05T05:54:19.916Z,80.57
2017-12-05T05:59:19.921Z,81.09
2017-12-05T06:04:19.888Z,80.61
2017-12-05T06:09:19.741Z,80.51
2017-12-05T06:14:19.732Z,80.61
2017-12-05T06:19:19.620Z,80.71
2017-12-05T06:24:19.574Z,80.22
2017-12-05T06:29:19.512Z,80.42
2017-12-05T06:34:19.540Z,80.13
2017-12-05T06:39:19.388Z,80.42
2017-12-05T06:44:19.360Z,80.32
2017-12-05T06:49:19.272Z,80.42
2017-12-05T06:54:19.217Z,80.71
2017-12-05T06:59:19.157Z,80.32
2017-12-05T07:04:19.100Z,81.09
2017-12-05T07:09:18.797Z,81.28
2017-12-05T07:14:18.720Z,80.8
2017-12-05T07:19:18.930Z,80.32
2017-12-05T07:24:18.862Z,81.48
2017-12-05T07:29:18.806Z,80.71
2017-12-05T07:34:18.747Z,80.71
2017-12-05T07:39:18.700Z,80.61
2017-12-05T07:44:18.645Z,80.8
2017-12-05T07:49:18.587Z,80.04
2017-12-05T07:54:18.513Z,80.42
2017-12-05T07:59:18.475Z,80.9
2017-12-05T08:04:18.412Z,80.51
2017-12-05T08:09:18.346Z,80.61
2017-12-05T08:14:18.283Z,80.71
2017-12-05T08:19:18.225Z,80.32
2017-12-05T08:24:18.171Z,80.42
2017-12-05T08:29:18.129Z,80.71
2017-12-05T08:34:18.079Z,80.22
2017-12-05T08:39:17.996Z,80.51
2017-12-05T08:44:17.937Z,80.22
2017-12-05T08:49:17.874Z,81.28
2017-12-05T08:54:17.828Z,81.48
2017-12-05T08:59:17.755Z,80.61
2017-12-05T09:04:17.717Z,80.75
2017-12-05T09:09:17.640Z,80.51
2017-12-05T09:14:17.636Z,82.05
2017-12-05T09:19:17.521Z,81.61
2017-12-05T09:24:17.471Z,81.61
2017-12-05T09:29:17.421Z,81.61
2017-12-05T09:34:17.355Z,80.75
2017-12-05T09:39:17.295Z,80.94
2017-12-05T09:44:17.234Z,80.71
2017-12-05T09:49:17.177Z,80.46
2017-12-05T09:54:17.122Z,81.13
2017-12-05T09:59:17.068Z,80.32
2017-12-05T10:04:17.003Z,80.42
2017-12-05T10:09:16.988Z,80.8
2017-12-05T10:14:16.898Z,80.9
2017-12-05T10:19:16.830Z,80.75
2017-12-05T10:24:16.780Z,80.8
2017-12-05T10:29:16.789Z,80.32
2017-12-05T10:34:16.655Z,80.84
2017-12-05T10:39:16.605Z,80.99
2017-12-05T10:44:16.330Z,80.9
2017-12-05T10:49:16.502Z,80.61
2017-12-05T10:54:16.442Z,81.09
2017-12-05T10:59:16.408Z,80.9
2017-12-05T11:04:16.312Z,80.42
2017-12-05T11:09:16.263Z,80.51
2017-12-05T11:14:16.194Z,79.65
2017-12-05T11:19:16.124Z,80.13
2017-12-05T11:24:16.064Z,79.65
2017-12-05T11:29:16.002Z,79.75
2017-12-05T11:34:15.960Z,80.04
2017-12-05T11:39:15.877Z,79.75
2017-12-05T11:44:15.939Z,79.84
2017-12-05T11:49:15.762Z,79.17
2017-12-05T11:54:15.716Z,79.55
2017-12-05T11:59:15.648Z,80.51
2017-12-05T12:04:15.611Z,80.32
2017-12-05T12:09:15.277Z,80.51
2017-12-05T12:14:15.221Z,81.09
2017-12-05T12:19:15.436Z,81.67
2017-12-05T12:24:15.349Z,81.09
2017-12-05T12:29:15.282Z,81.38
2017-12-05T12:34:15.238Z,80.99
2017-12-05T12:39:15.176Z,80.22
2017-12-05T12:44:15.115Z,80.51
2017-12-05T12:49:15.055Z,80.51
2017-12-05T12:54:15.000Z,79.75
2017-12-05T12:59:15.065Z,79.75
2017-12-05T13:04:14.901Z,79.55
2017-12-05T13:09:14.836Z,79.55
2017-12-05T13:14:14.772Z,79.65
2017-12-05T13:19:14.711Z,79.36
2017-12-05T13:24:14.659Z,79.07
2017-12-05T13:29:14.621Z,79.75
2017-12-05T13:34:14.526Z,79.65
2017-12-05T13:39:14.555Z,79.17
2017-12-05T13:44:14.247Z,79.36
2017-12-05T13:49:14.332Z,78.59
2017-12-05T13:54:14.277Z,79.07
2017-12-05T13:59:14.282Z,79.36
2017-12-05T14:04:14.170Z,79.55
2017-12-05T14:09:14.099Z,79.75
2017-12-05T14:14:13.770Z,80.22
2017-12-05T14:19:13.971Z,79.84
2017-12-05T14:24:13.916Z,79.94
2017-12-05T14:29:13.844Z,79.84
2017-12-05T14:34:13.786Z,79.84
2017-12-05T14:39:13.728Z,79.84
2017-12-05T14:44:13.670Z,79.75
2017-12-05T14:49:13.604Z,80.04
2017-12-05T14:54:13.548Z,79.94
2017-12-05T14:59:13.506Z,80.8
2017-12-05T15:04:13.424Z,80.42
2017-12-05T15:09:13.370Z,80.22
2017-12-05T15:14:13.295Z,80.04
2017-12-05T15:19:13.265Z,80.51
2017-12-05T15:24:13.196Z,80.51
2017-12-05T15:29:12.959Z,80.32
2017-12-05T15:34:13.068Z,80.99
2017-12-05T15:39:13.014Z,80.32
2017-12-05T15:44:12.964Z,80.8
2017-12-05T15:49:12.929Z,80.9
2017-12-05T15:54:12.847Z,81.48
2017-12-05T15:59:12.788Z,81.57
2017-12-05T16:04:12.730Z,81.57
2017-12-05T16:09:12.405Z,81.28
2017-12-05T16:14:12.621Z,81.38
2017-12-05T16:19:12.537Z,81.28
2017-12-05T16:24:12.477Z,81.19
2017-12-05T16:29:12.430Z,81.67
2017-12-05T16:34:12.113Z,81.96
2017-12-05T16:39:12.314Z,82.15
2017-12-05T16:44:12.252Z,82.34
2017-12-05T16:49:12.197Z,82.86
2017-12-05T16:54:12.151Z,82.9
2017-12-05T16:59:12.103Z,82.14
2017-12-05T17:04:12.086Z,82.9
2017-12-05T17:09:11.993Z,83.58
2017-12-05T17:14:11.651Z,83.77
2017-12-05T17:19:11.849Z,84.19
2017-12-05T17:24:11.818Z,83.14
2017-12-05T17:29:11.493Z,81.88
2017-12-05T17:34:11.727Z,81.56
2017-12-05T17:39:11.414Z,81.17
2017-12-05T17:44:11.618Z,81.07
2017-12-05T17:49:11.547Z,80.69
2017-12-05T17:54:11.489Z,80.75
2017-12-05T17:59:11.435Z,80.88
2017-12-05T18:04:11.376Z,81.07
2017-12-05T18:09:11.325Z,80.6
2017-12-05T18:14:11.263Z,80.21
2017-12-05T18:19:10.986Z,80.11
2017-12-05T18:24:11.138Z,80.11
2017-12-05T18:29:11.099Z,80.3
2017-12-05T18:34:10.767Z,80.79
2017-12-05T18:39:11.031Z,80.6
2017-12-05T18:44:10.970Z,80.4
2017-12-05T18:49:10.597Z,81.56
2017-12-05T18:54:10.815Z,83
2017-12-05T18:59:10.754Z,84.16
2017-12-05T19:04:10.693Z,84.44
2017-12-05T19:09:10.646Z,84.16
2017-12-05T19:14:10.322Z,82.32
2017-12-05T19:19:10.528Z,82.32
2017-12-05T19:24:10.509Z,81.75
2017-12-05T19:29:10.472Z,81.84
2017-12-05T19:34:10.509Z,82.14
2017-12-05T19:39:10.374Z,82.23
2017-12-05T19:44:10.271Z,83
2017-12-05T19:49:10.226Z,82.75
2017-12-05T19:54:10.143Z,82.27
2017-12-05T19:59:10.100Z,81.98
2017-12-05T20:04:10.045Z,82.27
2017-12-05T20:09:09.982Z,82.37
2017-12-05T20:14:09.931Z,82.37
2017-12-05T20:19:09.874Z,82.08
2017-12-05T20:24:09.839Z,81.88
2017-12-05T20:29:09.504Z,81.88
2017-12-05T20:34:09.709Z,81.7
2017-12-05T20:39:09.650Z,81.7
2017-12-05T20:44:09.642Z,81.7
2017-12-05T20:49:09.569Z,81.79
2017-12-05T20:54:09.479Z,81.7
2017-12-05T20:59:09.419Z,81.3
2017-12-05T21:04:09.381Z,80.73
2017-12-05T21:09:09.353Z,80.54
2017-12-05T21:14:09.273Z,80.63
2017-12-05T21:19:09.228Z,81.21
2017-12-05T21:24:09.163Z,81.3
2017-12-05T21:29:09.128Z,80.83
2017-12-05T21:34:09.065Z,81.3
2017-12-05T21:39:09.032Z,80.92
2017-12-05T21:44:08.955Z,81.12
2017-12-05T21:49:08.877Z,81.3
2017-12-05T21:54:08.871Z,81.02
2017-12-05T21:59:08.766Z,80.54
2017-12-05T22:04:08.718Z,80.73
2017-12-05T22:09:08.652Z,81.12
2017-12-05T22:14:08.342Z,80.35
2017-12-05T22:19:08.542Z,80.54
2017-12-05T22:24:08.488Z,80.44
2017-12-05T22:29:08.437Z,81.3
2017-12-05T22:34:08.379Z,80.6
2017-12-05T22:39:08.056Z,80.5
2017-12-05T22:44:08.272Z,80.3
2017-12-05T22:49:08.202Z,80.4
2017-12-05T22:54:08.143Z,81.27
2017-12-05T22:59:08.104Z,80.88
2017-12-05T23:04:08.028Z,81.17
2017-12-05T23:09:07.981Z,81.61
2017-12-05T23:14:07.921Z,81.13
2017-12-05T23:19:07.857Z,80.84
2017-12-05T23:24:07.795Z,80.94
2017-12-05T23:29:07.732Z,81.04
2017-12-05T23:34:07.684Z,80.27
2017-12-05T23:39:07.623Z,80.65
2017-12-05T23:44:07.558Z,79.69
2017-12-05T23:49:07.506Z,79.79
2017-12-05T23:54:07.446Z,79.69
2017-12-05T23:59:07.440Z,79.75
